Time;durP1;ratioP1;P1;durP2;ratioP2;P2;SDS_P1;SDS_P2;PMS_P1;PMS_P2;Temp;Humidity;BMP_temperature;BMP_pressure;BME280_temperature;BME280_humidity;BME280_pressure;Samples;Min_cycle;Max_cycle;Signal;HPM_P1;HPM_P2
2021/12/20 00:02:01;;;;;;;5.12;2.35;;;;;;;0.10;100.00;98266.14;1709688;83;21144;-76
2021/12/20 00:04:27;;;;;;;4.40;2.25;;;;;;;0.10;100.00;98270.48;1709503;83;21584;-77
2021/12/20 00:06:54;;;;;;;2.62;1.70;;;;;;;0.12;100.00;98274.73;1709425;82;21219;-76
2021/12/20 00:09:22;;;;;;;4.92;2.40;;;;;;;0.11;100.00;98271.72;1709879;83;21299;-77
2021/12/20 00:11:49;;;;;;;4.53;1.87;;;;;;;0.10;100.00;98279.09;1709855;82;21088;-75
2021/12/20 00:14:17;;;;;;;5.30;2.10;;;;;;;0.06;100.00;98279.20;1710057;83;21105;-79
2021/12/20 00:16:44;;;;;;;5.17;2.17;;;;;;;0.01;100.00;98280.61;1710267;83;21088;-79
2021/12/20 00:19:10;;;;;;;3.40;1.60;;;;;;;-0.07;100.00;98276.05;1710569;83;21071;-78
2021/12/20 00:21:38;;;;;;;4.28;1.85;;;;;;;-0.15;100.00;98279.27;1710097;83;21081;-77
2021/12/20 00:24:07;;;;;;;4.00;1.82;;;;;;;-0.21;100.00;98282.83;1710383;83;21577;-77
2021/12/20 00:26:33;;;;;;;6.40;2.15;;;;;;;-0.27;100.00;98292.05;1709360;83;21584;-78
2021/12/20 00:29:01;;;;;;;3.47;1.90;;;;;;;-0.32;100.00;98295.16;1710500;83;21061;-79
2021/12/20 00:31:28;;;;;;;3.00;1.60;;;;;;;-0.36;100.00;98300.86;1710018;83;21101;-78
2021/12/20 00:33:54;;;;;;;3.90;1.90;;;;;;;-0.39;100.00;98297.06;1710535;83;21070;-77
2021/12/20 00:36:22;;;;;;;4.40;1.82;;;;;;;-0.41;100.00;98297.53;1710245;82;21486;-76
2021/12/20 00:41:34;;;;;;;2.85;1.47;;;;;;;-0.40;100.00;98292.75;1710058;83;21089;-76
2021/12/20 00:44:01;;;;;;;2.77;1.57;;;;;;;-0.39;100.00;98295.77;1710169;83;22189;-76
2021/12/20 00:46:27;;;;;;;2.25;1.25;;;;;;;-0.37;100.00;98295.27;1709514;83;21048;-76
2021/12/20 00:48:54;;;;;;;3.50;1.60;;;;;;;-0.36;100.00;98295.69;1709844;83;21025;-76
2021/12/20 00:51:21;;;;;;;3.45;1.60;;;;;;;-0.37;100.00;98296.55;1709819;83;21058;-76
2021/12/20 00:53:47;;;;;;;3.10;1.30;;;;;;;-0.38;100.00;98297.45;1710449;83;21607;-76
2021/12/20 00:56:14;;;;;;;1.98;1.35;;;;;;;-0.40;100.00;98303.09;1704304;83;21831;-75
2021/12/20 00:58:40;;;;;;;2.70;1.40;;;;;;;-0.39;100.00;98310.41;1698734;84;21113;-76
2021/12/20 01:01:09;;;;;;;3.98;1.20;;;;;;;-0.41;100.00;98309.17;1703922;83;21046;-77
2021/12/20 01:03:35;;;;;;;2.70;1.30;;;;;;;-0.44;100.00;98309.22;1710607;83;21599;-77
2021/12/20 01:06:02;;;;;;;2.42;1.45;;;;;;;-0.47;100.00;98314.47;1710155;82;21093;-76
2021/12/20 01:08:33;;;;;;;2.90;1.05;;;;;;;-0.51;100.00;98312.38;1709707;83;22305;-81
2021/12/20 01:11:00;;;;;;;2.70;1.30;;;;;;;-0.53;100.00;98312.88;1710252;83;22221;-79
2021/12/20 01:13:29;;;;;;;3.35;1.42;;;;;;;-0.58;100.00;98315.98;1709992;83;21092;-79
2021/12/20 01:15:58;;;;;;;2.58;1.27;;;;;;;-0.54;100.00;98320.20;1710186;83;21073;-78
2021/12/20 01:18:24;;;;;;;3.90;1.45;;;;;;;-0.56;100.00;98326.30;1710187;83;21041;-78
2021/12/20 01:20:51;;;;;;;3.40;1.70;;;;;;;-0.59;100.00;98323.78;1710498;83;21212;-77
2021/12/20 01:23:17;;;;;;;2.00;1.30;;;;;;;-0.62;100.00;98329.00;1709775;83;22082;-77
2021/12/20 01:25:45;;;;;;;3.65;1.20;;;;;;;-0.65;100.00;98329.92;1710288;83;21026;-78
2021/12/20 01:28:12;;;;;;;2.83;1.72;;;;;;;-0.66;100.00;98323.06;1709745;83;21402;-78
2021/12/20 01:30:39;;;;;;;3.37;1.60;;;;;;;-0.66;100.00;98320.03;1710279;83;21120;-78
2021/12/20 01:33:09;;;;;;;2.75;1.50;;;;;;;-0.65;100.00;98317.84;1709876;83;21539;-78
2021/12/20 01:35:35;;;;;;;4.62;1.55;;;;;;;-0.62;100.00;98319.95;1710064;83;21092;-79
2021/12/20 01:38:02;;;;;;;3.58;1.50;;;;;;;-0.62;100.00;98321.25;1709815;82;21041;-80
2021/12/20 01:40:28;;;;;;;4.10;1.72;;;;;;;-0.60;100.00;98322.91;1710290;83;21076;-79
2021/12/20 01:42:57;;;;;;;2.72;1.20;;;;;;;-0.58;100.00;98312.55;1710053;83;21041;-79
2021/12/20 01:45:27;;;;;;;3.30;1.30;;;;;;;-0.57;100.00;98315.56;1710209;83;21154;-77
2021/12/20 01:48:03;;;;;;;4.25;1.80;;;;;;;-0.54;100.00;98325.83;1710448;82;21073;-79
2021/12/20 01:50:41;;;;;;;3.80;1.05;;;;;;;-0.53;100.00;98317.17;1707556;83;21559;-79
2021/12/20 01:52:51;;;;;;;3.50;1.30;;;;;;;-0.53;100.00;98308.13;1703957;83;21068;-78
2021/12/20 01:55:20;;;;;;;2.80;1.85;;;;;;;-0.50;100.00;98310.66;1708788;83;21596;-78
2021/12/20 01:57:47;;;;;;;3.35;1.40;;;;;;;-0.54;100.00;98318.91;1698317;84;21145;-80
2021/12/20 02:00:21;;;;;;;3.02;1.52;;;;;;;-0.51;100.00;98308.95;1698716;84;21118;-78
2021/12/20 02:02:56;;;;;;;3.08;1.60;;;;;;;-0.48;100.00;98315.36;1698115;84;21643;-77
2021/12/20 02:05:27;;;;;;;3.62;1.60;;;;;;;-0.47;100.00;98319.64;1697432;84;21069;-77
2021/12/20 02:07:51;;;;;;;6.20;1.90;;;;;;;-0.47;100.00;98319.19;1678344;84;21137;-77
2021/12/20 02:10:15;;;;;;;2.83;1.62;;;;;;;-0.46;100.00;98323.91;1698344;84;21487;-80
2021/12/20 02:12:43;;;;;;;4.72;1.82;;;;;;;-0.44;100.00;98323.44;1698144;84;21129;-79
2021/12/20 02:15:10;;;;;;;2.87;1.75;;;;;;;-0.45;100.00;98329.52;1698344;84;21053;-76
2021/12/20 02:17:36;;;;;;;3.20;1.82;;;;;;;-0.46;100.00;98330.38;1698378;84;21118;-77
2021/12/20 02:20:04;;;;;;;3.52;1.57;;;;;;;-0.45;100.00;98316.13;1657507;84;21152;-76
2021/12/20 02:22:31;;;;;;;2.22;1.30;;;;;;;-0.40;100.00;98327.67;1698424;84;22072;-75
2021/12/20 02:24:59;;;;;;;2.02;1.35;;;;;;;-0.36;100.00;98333.19;1698345;84;21027;-74
2021/12/20 02:27:26;;;;;;;3.02;1.40;;;;;;;-0.34;100.00;98321.08;1698420;84;21133;-75
2021/12/20 02:30:07;;;;;;;3.47;1.72;;;;;;;-0.31;100.00;98330.05;1704897;83;21540;-74
2021/12/20 02:37:56;;;;;;;2.72;1.25;;;;;;;-0.29;100.00;98334.75;1698488;83;21072;-77
2021/12/20 02:40:23;;;;;;;2.42;1.30;;;;;;;-0.25;100.00;98340.28;1709754;83;21113;-78
2021/12/20 02:42:51;;;;;;;4.00;1.47;;;;;;;-0.20;100.00;98340.17;1710213;83;21035;-78
2021/12/20 02:45:17;;;;;;;3.52;1.10;;;;;;;-0.16;100.00;98337.06;1710263;83;21100;-79
2021/12/20 02:47:46;;;;;;;2.47;1.22;;;;;;;-0.10;100.00;98345.98;1710296;83;21152;-77
2021/12/20 02:50:14;;;;;;;3.08;1.52;;;;;;;-0.13;100.00;98338.31;1709933;83;21604;-76
2021/12/20 02:52:40;;;;;;;4.78;1.20;;;;;;;-0.12;100.00;98342.58;1709814;83;21089;-77
2021/12/20 02:55:08;;;;;;;2.77;1.47;;;;;;;-0.11;100.00;98348.19;1709301;83;21545;-75
2021/12/20 02:57:37;;;;;;;2.70;1.30;;;;;;;-0.22;100.00;98327.27;1698222;84;21085;-74
2021/12/20 03:00:07;;;;;;;4.35;1.50;;;;;;;-0.11;100.00;98337.83;1698329;84;21983;-75
2021/12/20 03:02:34;;;;;;;;;;;;;;;-0.11;100.00;98341.72;1701098;84;21031;-74
2021/12/20 03:05:01;;;;;;;2.45;1.20;;;;;;;-0.13;100.00;98342.19;1697925;84;20201;-77
2021/12/20 03:07:28;;;;;;;2.80;1.47;;;;;;;-0.13;100.00;98346.06;1698196;84;21148;-77
2021/12/20 03:10:01;;;;;;;4.17;1.30;;;;;;;-0.16;100.00;98347.41;1698288;84;21061;-76
2021/12/20 03:12:27;;;;;;;2.80;1.32;;;;;;;-0.14;100.00;98348.23;1698108;84;21066;-77
2021/12/20 03:14:57;;;;;;;3.05;1.37;;;;;;;-0.14;100.00;98349.52;1698094;84;21323;-77
2021/12/20 03:17:21;;;;;;;2.83;1.55;;;;;;;-0.13;100.00;98357.71;1698102;84;21090;-75
2021/12/20 03:19:48;;;;;;;2.95;1.30;;;;;;;-0.09;100.00;98350.27;1698308;84;21109;-76
2021/12/20 03:22:14;;;;;;;4.05;1.67;;;;;;;-0.10;100.00;98353.30;1698259;84;21534;-79
2021/12/20 03:24:40;;;;;;;2.70;1.50;;;;;;;-0.10;100.00;98349.42;1698397;84;21548;-77
2021/12/20 03:27:07;;;;;;;2.58;1.37;;;;;;;-0.09;100.00;98347.26;1701889;82;22266;-79
2021/12/20 03:29:33;;;;;;;5.22;1.98;;;;;;;-0.11;100.00;98341.72;1709874;83;21555;-78
2021/12/20 03:32:00;;;;;;;3.12;1.32;;;;;;;-0.11;100.00;98341.72;1710331;83;21053;-73
2021/12/20 03:40:21;;;;;;;3.57;1.50;;;;;;;-0.13;100.00;98346.06;1794793;78;21964;-74
2021/12/20 03:42:48;;;;;;;3.27;1.52;;;;;;;-0.17;100.00;98353.03;1771656;79;21059;-76
2021/12/20 03:45:15;;;;;;;2.30;1.30;;;;;;;-0.17;100.00;98353.48;1758277;79;21139;-76
2021/12/20 03:47:43;;;;;;;3.65;1.50;;;;;;;-0.17;100.00;98352.19;1771859;80;21029;-75
2021/12/20 03:50:10;;;;;;;2.45;1.40;;;;;;;-0.19;100.00;98354.80;1791403;80;21226;-75
2021/12/20 03:52:39;;;;;;;2.80;1.32;;;;;;;-0.19;100.00;98350.08;1772447;80;21075;-75
2021/12/20 03:55:12;;;;;;;2.60;1.22;;;;;;;-0.17;100.00;98357.36;1774505;79;21044;-78
2021/12/20 03:57:38;;;;;;;5.08;1.50;;;;;;;-0.18;100.00;98356.94;1759587;81;21165;-76
2021/12/20 04:00:09;;;;;;;4.12;1.67;;;;;;;-0.12;100.00;98357.66;1729228;82;21602;-76
2021/12/20 04:02:42;;;;;;;2.75;1.37;;;;;;;-0.13;100.00;98350.80;1701715;83;21576;-78
2021/12/20 04:05:09;;;;;;;3.00;1.60;;;;;;;-0.15;100.00;98358.19;1692815;83;21252;-76
2021/12/20 04:07:35;;;;;;;2.62;1.30;;;;;;;-0.12;100.00;98363.28;1670844;85;21108;-77
2021/12/20 04:10:03;;;;;;;5.45;1.40;;;;;;;-0.14;100.00;98361.17;1678498;84;21093;-78
2021/12/20 04:12:31;;;;;;;2.85;1.40;;;;;;;-0.16;100.00;98361.64;1678145;84;21081;-76
2021/12/20 04:14:57;;;;;;;1.52;1.20;;;;;;;-0.15;100.00;98369.83;1676967;84;21056;-76
2021/12/20 04:17:24;;;;;;;3.27;0.95;;;;;;;-0.18;100.00;98363.41;1677634;84;21203;-76
2021/12/20 04:19:50;;;;;;;2.65;1.32;;;;;;;-0.15;100.00;98363.36;1678560;84;21057;-77
2021/12/20 04:22:19;;;;;;;2.50;1.30;;;;;;;-0.11;100.00;98367.59;1678462;84;21140;-78
2021/12/20 04:24:46;;;;;;;2.70;1.37;;;;;;;-0.13;100.00;98373.23;1675341;84;22032;-76
2021/12/20 04:27:13;;;;;;;4.72;1.52;;;;;;;-0.11;100.00;98376.20;1675991;85;21213;-77
2021/12/20 04:29:39;;;;;;;2.15;1.35;;;;;;;-0.14;100.00;98374.95;1671919;85;21138;-75
2021/12/20 04:32:07;;;;;;;3.17;1.50;;;;;;;-0.13;100.00;98377.13;1664474;85;21158;-79
2021/12/20 04:34:35;;;;;;;2.65;1.50;;;;;;;-0.15;100.00;98380.18;1666848;85;21141;-79
2021/12/20 04:37:03;;;;;;;2.17;1.30;;;;;;;-0.18;100.00;98384.10;1658911;85;21085;-78
2021/12/20 04:39:31;;;;;;;6.08;1.60;;;;;;;-0.16;100.00;98387.52;1672195;85;21024;-79
2021/12/20 04:42:00;;;;;;;2.42;1.40;;;;;;;-0.17;100.00;98391.00;1667236;85;21077;-79
2021/12/20 04:44:27;;;;;;;3.25;1.37;;;;;;;-0.16;100.00;98396.16;1682960;84;21102;-76
2021/12/20 04:46:53;;;;;;;1.75;1.20;;;;;;;-0.16;100.00;98388.39;1706556;83;21145;-80
2021/12/20 04:49:20;;;;;;;4.30;1.35;;;;;;;-0.15;100.00;98384.06;1699658;83;21085;-71
2021/12/20 04:51:48;;;;;;;2.30;1.30;;;;;;;-0.12;100.00;98395.63;1716554;83;21749;-70
2021/12/20 04:54:14;;;;;;;3.67;1.60;;;;;;;-0.09;100.00;98394.25;1694950;83;21179;-71
2021/12/20 04:56:41;;;;;;;2.40;1.00;;;;;;;-0.08;100.00;98390.35;1693277;83;21119;-72
2021/12/20 04:59:07;;;;;;;7.58;1.32;;;;;;;-0.10;100.00;98406.34;1694871;84;21546;-71
2021/12/20 05:01:34;;;;;;;4.58;1.42;;;;;;;-0.13;100.00;98410.75;1696032;84;21140;-70
2021/12/20 05:04:00;;;;;;;1.40;1.05;;;;;;;-0.09;100.00;98399.43;1704087;83;21493;-70
2021/12/20 05:06:29;;;;;;;2.98;1.35;;;;;;;-0.08;100.00;98403.73;1696159;83;21600;-69
2021/12/20 05:08:56;;;;;;;2.90;1.30;;;;;;;-0.06;100.00;98414.91;1700821;83;21112;-69
2021/12/20 05:11:23;;;;;;;1.65;1.20;;;;;;;-0.04;100.00;98413.14;1708062;83;21118;-69
2021/12/20 05:13:50;;;;;;;2.87;1.30;;;;;;;-0.10;100.00;98414.56;1698289;83;21092;-69
2021/12/20 05:16:16;;;;;;;1.77;1.12;;;;;;;-0.16;100.00;98415.97;1688069;83;21155;-70
2021/12/20 05:18:46;;;;;;;3.17;1.52;;;;;;;-0.14;100.00;98416.80;1703592;83;22110;-70
2021/12/20 05:21:14;;;;;;;3.02;1.57;;;;;;;-0.15;100.00;98421.58;1684150;83;21665;-71
2021/12/20 05:23:40;;;;;;;4.20;1.42;;;;;;;-0.16;100.00;98426.33;1705471;83;21180;-71
2021/12/20 05:26:07;;;;;;;2.10;1.30;;;;;;;-0.17;100.00;98423.34;1694452;83;21591;-71
2021/12/20 05:28:34;;;;;;;2.47;1.45;;;;;;;-0.18;100.00;98426.80;1679733;84;21082;-73
2021/12/20 05:31:00;;;;;;;3.30;1.42;;;;;;;-0.16;100.00;98428.91;1711939;83;21250;-71
2021/12/20 05:33:27;;;;;;;2.02;1.30;;;;;;;-0.18;100.00;98428.97;1662212;84;21105;-70
2021/12/20 05:35:54;;;;;;;2.40;1.45;;;;;;;-0.20;100.00;98432.47;1686578;84;21229;-70
2021/12/20 05:38:20;;;;;;;4.53;1.37;;;;;;;-0.22;100.00;98430.75;1721118;83;21077;-71
2021/12/20 05:40:47;;;;;;;7.90;1.80;;;;;;;-0.27;100.00;98432.59;1671993;84;21159;-71
2021/12/20 05:43:13;;;;;;;3.05;1.55;;;;;;;-0.30;100.00;98437.84;1696871;83;21598;-70
2021/12/20 05:45:40;;;;;;;3.77;1.50;;;;;;;-0.31;100.00;98433.53;1671386;85;21093;-71
2021/12/20 05:48:07;;;;;;;1.90;1.15;;;;;;;-0.32;100.00;98439.59;1684153;84;21227;-71
2021/12/20 05:50:33;;;;;;;2.80;1.70;;;;;;;-0.34;100.00;98441.36;1693423;84;21090;-69
2021/12/20 05:53:00;;;;;;;4.47;1.37;;;;;;;-0.34;100.00;98446.53;1689790;84;21086;-69
2021/12/20 05:55:26;;;;;;;3.37;1.50;;;;;;;-0.34;100.00;98443.10;1679348;84;21213;-69
2021/12/20 05:57:53;;;;;;;3.05;1.80;;;;;;;-0.33;100.00;98444.79;1655707;86;21632;-70
2021/12/20 06:00:21;;;;;;;3.67;1.45;;;;;;;-0.33;100.00;98448.22;1658230;84;21156;-71
2021/12/20 06:02:50;;;;;;;4.37;1.32;;;;;;;-0.32;100.00;98452.53;1678125;85;21076;-70
2021/12/20 06:05:17;;;;;;;2.52;1.52;;;;;;;-0.28;100.00;98455.89;1671495;85;21029;-69
2021/12/20 06:07:43;;;;;;;2.60;1.70;;;;;;;-0.14;100.00;98459.48;1685681;84;21616;-69
2021/12/20 06:10:15;;;;;;;2.80;1.35;;;;;;;-0.14;100.00;98456.45;1692514;84;21056;-70
2021/12/20 06:12:43;;;;;;;3.27;1.60;;;;;;;-0.07;100.00;98462.36;1707129;83;21126;-71
2021/12/20 06:15:10;;;;;;;4.58;1.60;;;;;;;-0.07;100.00;98464.95;1699834;83;21187;-70
2021/12/20 06:17:38;;;;;;;5.00;1.67;;;;;;;-0.07;100.00;98464.95;1703373;83;21513;-69
2021/12/20 06:20:07;;;;;;;2.30;1.37;;;;;;;-0.06;100.00;98462.34;1706149;83;21565;-69
2021/12/20 06:22:34;;;;;;;3.30;1.50;;;;;;;-0.03;100.00;98469.18;1673124;84;21580;-67
2021/12/20 06:25:03;;;;;;;3.47;1.70;;;;;;;-0.02;100.00;98470.91;1686819;84;22127;-68
2021/12/20 06:27:30;;;;;;;4.95;1.75;;;;;;;-0.01;100.00;98473.89;1670570;84;21105;-68
2021/12/20 06:29:57;;;;;;;4.83;1.70;;;;;;;-0.05;100.00;98472.23;1669083;84;21072;-68
2021/12/20 06:32:23;;;;;;;3.42;1.62;;;;;;;-0.06;100.00;98473.14;1681877;84;21080;-68
2021/12/20 06:34:50;;;;;;;2.42;1.50;;;;;;;-0.04;100.00;98479.14;1685707;84;21080;-69
2021/12/20 06:37:16;;;;;;;4.30;1.75;;;;;;;-0.04;100.00;98483.02;1669908;84;22124;-67
2021/12/20 06:39:43;;;;;;;3.42;1.80;;;;;;;-0.05;100.00;98489.06;1670920;84;21072;-67
2021/12/20 06:42:10;;;;;;;2.87;1.50;;;;;;;-0.05;100.00;98491.65;1669597;84;21572;-69
2021/12/20 06:44:37;;;;;;;3.77;1.77;;;;;;;-0.05;100.00;98486.47;1668726;84;21203;-67
2021/12/20 06:47:04;;;;;;;3.02;1.65;;;;;;;-0.01;100.00;98492.00;1669958;84;21723;-68
2021/12/20 06:49:30;;;;;;;4.85;1.82;;;;;;;-0.01;100.00;98493.30;1701890;82;22244;-69
2021/12/20 06:52:00;;;;;;;2.27;1.60;;;;;;;0.00;100.00;98496.31;1691294;83;22193;-68
2021/12/20 06:54:25;;;;;;;2.40;1.80;;;;;;;-0.01;100.00;98501.91;1714803;83;21407;-68
2021/12/20 06:56:52;;;;;;;5.50;2.10;;;;;;;-0.03;100.00;98490.73;1672147;84;21089;-68
2021/12/20 06:59:19;;;;;;;3.67;1.72;;;;;;;0.02;100.00;98498.40;1684639;84;21077;-68
2021/12/20 07:01:45;;;;;;;3.25;1.60;;;;;;;0.04;100.00;98500.52;1668672;84;21523;-69
2021/12/20 07:04:12;;;;;;;4.33;1.62;;;;;;;0.09;100.00;98509.06;1675910;84;21057;-69
2021/12/20 07:06:39;;;;;;;2.77;1.77;;;;;;;0.10;100.00;98522.41;1666114;84;21035;-68
2021/12/20 07:09:07;;;;;;;2.85;1.50;;;;;;;0.10;100.00;98519.81;1689813;83;21273;-69
2021/12/20 07:11:34;;;;;;;2.15;1.30;;;;;;;0.14;100.00;98511.11;1667698;84;21102;-69
2021/12/20 07:14:01;;;;;;;1.98;1.10;;;;;;;0.16;100.00;98517.11;1683572;83;21787;-70
2021/12/20 07:16:32;;;;;;;1.82;1.30;;;;;;;0.20;100.00;98514.84;1686169;83;21081;-69
2021/12/20 07:18:55;;;;;;;3.10;1.35;;;;;;;0.22;100.00;98513.98;1685836;84;21092;-69
2021/12/20 07:21:21;;;;;;;2.35;1.35;;;;;;;0.22;100.00;98515.27;1687600;84;21164;-69
2021/12/20 07:23:48;;;;;;;2.15;1.20;;;;;;;0.26;100.00;98511.73;1694340;84;21130;-69
2021/12/20 07:26:14;;;;;;;3.30;1.30;;;;;;;0.28;100.00;98522.92;1671629;84;21154;-70
2021/12/20 07:28:42;;;;;;;4.90;1.47;;;;;;;0.29;100.00;98520.73;1683527;83;21098;-69
2021/12/20 07:31:14;;;;;;;3.67;1.55;;;;;;;0.31;100.00;98520.25;1673991;83;21087;-69
2021/12/20 07:33:42;;;;;;;2.22;1.65;;;;;;;0.31;100.00;98521.55;1683732;84;21135;-68
2021/12/20 07:36:09;;;;;;;3.47;1.80;;;;;;;0.36;100.00;98524.89;1687745;84;21080;-70
2021/12/20 07:38:36;;;;;;;3.08;1.35;;;;;;;0.38;100.00;98530.44;1678098;84;21978;-68
2021/12/20 07:41:03;;;;;;;3.17;1.60;;;;;;;0.40;100.00;98526.08;1691002;84;21112;-69
2021/12/20 07:43:30;;;;;;;1.62;1.20;;;;;;;0.43;100.00;98533.38;1694403;84;21112;-70
2021/12/20 07:45:56;;;;;;;3.40;1.67;;;;;;;0.43;100.00;98532.08;1682660;84;21148;-68
2021/12/20 07:48:23;;;;;;;4.85;2.10;;;;;;;0.50;100.00;98541.42;1688810;83;21157;-69
2021/12/20 07:50:51;;;;;;;3.80;1.70;;;;;;;0.52;100.00;98537.91;1667678;84;21165;-69
2021/12/20 07:53:18;;;;;;;4.72;1.90;;;;;;;0.51;100.00;98541.40;1689066;84;21096;-71
2021/12/20 07:55:44;;;;;;;3.37;1.40;;;;;;;0.55;100.00;98546.93;1685146;84;21104;-70
2021/12/20 07:58:12;;;;;;;1.80;1.45;;;;;;;0.56;100.00;98560.27;1674860;84;21116;-70
2021/12/20 08:00:39;;;;;;;2.65;1.47;;;;;;;0.56;100.00;98562.87;1670546;84;21076;-70
2021/12/20 08:03:06;;;;;;;2.02;1.42;;;;;;;0.58;100.00;98562.39;1683977;83;22203;-70
2021/12/20 08:05:34;;;;;;;2.20;1.65;;;;;;;0.60;100.00;98568.40;1680228;84;21181;-70
2021/12/20 08:08:00;;;;;;;2.62;1.37;;;;;;;0.58;100.00;98555.92;1662916;84;21070;-71
2021/12/20 08:10:29;;;;;;;2.42;1.47;;;;;;;0.67;100.00;98566.95;1673941;84;21154;-70
2021/12/20 08:12:56;;;;;;;2.10;1.60;;;;;;;0.68;100.00;98566.92;1675708;84;21179;-69
2021/12/20 08:15:22;;;;;;;2.27;1.50;;;;;;;0.72;100.00;98559.95;1687917;84;21152;-69
2021/12/20 08:17:50;;;;;;;2.25;1.45;;;;;;;0.72;100.00;98558.66;1677285;84;22197;-70
2021/12/20 08:20:16;;;;;;;2.80;1.80;;;;;;;0.80;100.00;98561.91;1665591;84;21080;-70
2021/12/20 08:22:42;;;;;;;3.85;1.77;;;;;;;0.83;100.00;98561.86;1674865;84;21155;-70
2021/12/20 08:25:10;;;;;;;3.08;1.87;;;;;;;0.89;100.00;98562.99;1691484;83;21109;-71
2021/12/20 08:27:39;;;;;;;5.62;2.33;;;;;;;0.93;100.00;98571.12;1686452;83;21529;-70
2021/12/20 08:30:08;;;;;;;3.25;1.70;;;;;;;0.89;100.00;98570.77;1665997;84;21083;-70
2021/12/20 08:32:36;;;;;;;3.47;1.90;;;;;;;0.91;100.00;98572.89;1694600;84;21639;-70
2021/12/20 08:35:06;;;;;;;4.95;2.00;;;;;;;0.91;100.00;98572.89;1671685;83;21161;-73
2021/12/20 08:37:33;;;;;;;5.17;2.50;;;;;;;0.79;100.00;98553.29;1672758;84;21129;-69
2021/12/20 08:40:02;;;;;;;2.90;2.10;;;;;;;0.87;100.00;98568.66;1690635;83;21140;-70
2021/12/20 08:42:28;;;;;;;4.90;2.72;;;;;;;0.85;100.00;98573.02;1668123;83;21075;-69
2021/12/20 08:44:55;;;;;;;4.67;2.60;;;;;;;0.86;100.00;98574.73;1682701;84;21075;-71
2021/12/20 08:47:21;;;;;;;3.95;1.98;;;;;;;0.86;100.00;98574.73;1686087;83;21098;-70
2021/12/20 08:49:47;;;;;;;4.95;2.42;;;;;;;0.87;100.00;98573.84;1696668;83;21605;-70
2021/12/20 08:52:14;;;;;;;5.25;2.62;;;;;;;0.94;100.00;98562.89;1695670;83;22213;-71
2021/12/20 08:54:41;;;;;;;6.47;2.58;;;;;;;1.02;100.00;98576.09;1708925;83;21842;-71
2021/12/20 08:57:08;;;;;;;5.30;2.50;;;;;;;1.07;100.00;98573.84;1697811;83;21152;-70
2021/12/20 08:59:35;;;;;;;6.60;2.80;;;;;;;1.10;100.00;98576.34;1696507;83;20998;-72
2021/12/20 09:02:04;;;;;;;6.78;2.67;;;;;;;1.08;100.00;98574.23;1697854;83;21115;-70
2021/12/20 09:04:32;;;;;;;9.35;3.67;;;;;;;1.12;100.00;98571.98;1669163;83;21142;-70
2021/12/20 09:06:59;;;;;;;5.67;2.80;;;;;;;1.19;100.00;98568.35;1695396;84;21123;-72
2021/12/20 09:09:26;;;;;;;3.45;2.02;;;;;;;1.20;100.00;98577.85;1678197;84;21145;-70
2021/12/20 09:11:54;;;;;;;5.08;2.90;;;;;;;1.24;100.00;98574.27;1662315;85;21072;-68
2021/12/20 09:14:20;;;;;;;5.90;2.65;;;;;;;1.26;100.00;98580.28;1663577;84;21129;-70
2021/12/20 09:16:46;;;;;;;5.90;2.95;;;;;;;1.22;100.00;98576.05;1692226;83;21087;-70
2021/12/20 09:19:13;;;;;;;3.85;2.40;;;;;;;1.23;100.00;98577.77;1665027;84;21113;-70
2021/12/20 09:21:41;;;;;;;4.42;2.80;;;;;;;1.21;100.00;98581.69;1691415;83;21670;-69
2021/12/20 09:24:09;;;;;;;5.33;2.70;;;;;;;1.21;100.00;98578.24;1677980;84;21064;-70
2021/12/20 09:26:36;;;;;;;6.25;2.65;;;;;;;1.23;100.00;98580.36;1693588;83;21033;-71
2021/12/20 09:29:03;;;;;;;3.47;2.35;;;;;;;1.22;100.00;98578.22;1681483;84;21198;-68
2021/12/20 09:31:31;;;;;;;4.40;2.52;;;;;;;1.27;100.00;98582.00;1696898;84;21172;-69
2021/12/20 09:33:58;;;;;;;5.90;2.65;;;;;;;1.30;100.00;98576.72;1693244;84;21163;-69
2021/12/20 09:36:29;;;;;;;4.05;2.50;;;;;;;1.25;100.00;98575.99;1701516;83;21129;-69
2021/12/20 09:38:54;;;;;;;6.67;2.87;;;;;;;1.22;100.00;98581.23;1683956;83;21072;-70
2021/12/20 09:41:59;;;;;;;4.95;2.60;;;;;;;1.20;100.00;98588.22;1706536;83;21246;-70
2021/12/20 09:43:51;;;;;;;5.62;2.70;;;;;;;1.21;100.00;98584.73;1707152;83;21102;-69
2021/12/20 09:46:21;;;;;;;4.58;2.60;;;;;;;1.18;100.00;98580.92;1699432;83;21088;-69
2021/12/20 09:48:49;;;;;;;4.85;2.90;;;;;;;1.15;100.00;98580.97;1715436;83;21520;-70
2021/12/20 09:51:16;;;;;;;5.95;2.80;;;;;;;1.16;100.00;98587.88;1699806;83;21730;-71
2021/12/20 09:53:43;;;;;;;6.37;3.00;;;;;;;1.15;100.00;98580.97;1721676;83;21287;-69
2021/12/20 09:56:14;;;;;;;4.95;2.65;;;;;;;1.17;100.00;98586.98;1693817;83;21551;-71
2021/12/20 09:58:40;;;;;;;5.35;2.58;;;;;;;1.22;100.00;98592.48;1678970;84;21140;-70
2021/12/20 10:01:10;;;;;;;4.55;2.52;;;;;;;1.28;100.00;98590.17;1655017;85;21103;-69
2021/12/20 10:03:37;;;;;;;6.30;2.60;;;;;;;1.30;100.00;98594.88;1650876;85;21128;-69
2021/12/20 10:06:04;;;;;;;6.83;3.75;;;;;;;1.34;100.00;98591.33;1669694;85;21174;-70
2021/12/20 10:08:33;;;;;;;4.83;2.40;;;;;;;1.79;100.00;98589.75;1669862;85;21415;-69
2021/12/20 10:11:20;;;;;;;5.17;2.40;;;;;;;2.17;100.00;98591.78;1656569;85;21164;-71
2021/12/20 10:13:47;;;;;;;2.90;1.75;;;;;;;3.12;100.00;98588.97;1670024;84;21587;-70
2021/12/20 10:16:20;;;;;;;3.55;1.50;;;;;;;4.21;100.00;98575.36;1686136;83;21196;-70
2021/12/20 10:18:49;;;;;;;3.60;1.60;;;;;;;4.99;100.00;98572.84;1683189;83;21151;-71
2021/12/20 10:21:16;;;;;;;3.70;1.77;;;;;;;5.46;98.32;98576.64;1675315;84;21127;-70
2021/12/20 10:23:48;;;;;;;3.15;1.80;;;;;;;5.62;93.19;98576.39;1678718;84;21095;-70
2021/12/20 10:26:20;;;;;;;4.20;1.80;;;;;;;5.54;93.61;98573.23;1689314;83;21124;-70
2021/12/20 10:28:52;;;;;;;3.25;1.67;;;;;;;5.48;89.52;98577.89;1685896;83;21674;-70
2021/12/20 10:31:21;;;;;;;3.33;1.80;;;;;;;5.36;87.31;98577.91;1684330;83;22138;-69
2021/12/20 10:33:59;;;;;;;5.60;2.77;;;;;;;5.38;88.89;98579.57;1678064;83;21643;-70
2021/12/20 10:36:27;;;;;;;3.90;2.30;;;;;;;5.66;89.41;98574.52;1701175;83;21095;-71
2021/12/20 10:38:56;;;;;;;6.20;2.22;;;;;;;6.36;87.86;98575.86;1702491;83;21203;-70
2021/12/20 10:41:39;;;;;;;3.62;2.17;;;;;;;6.71;82.85;98576.03;1698704;83;21017;-72
2021/12/20 10:44:01;;;;;;;3.67;2.30;;;;;;;6.78;83.43;98572.20;1665136;84;21324;-72
2021/12/20 10:46:35;;;;;;;7.05;3.02;;;;;;;6.96;85.64;98580.12;1671921;83;21165;-69
2021/12/20 10:49:08;;;;;;;3.87;2.05;;;;;;;7.16;81.28;98581.81;1689247;84;21581;-69
2021/12/20 10:51:40;;;;;;;4.22;1.70;;;;;;;7.04;74.23;98575.36;1645399;85;21114;-72
2021/12/20 10:54:10;;;;;;;3.15;1.82;;;;;;;6.59;78.23;98590.52;1679858;84;21080;-74
2021/12/20 10:56:54;;;;;;;3.75;1.50;;;;;;;6.20;75.97;98593.14;1662823;85;21151;-73
2021/12/20 10:59:23;;;;;;;4.62;1.57;;;;;;;5.72;78.75;98589.07;1662446;84;21630;-72
2021/12/20 11:04:26;;;;;;;4.80;1.25;;;;;;;5.62;80.48;98589.45;1636011;84;21093;-72
2021/12/20 11:09:43;;;;;;;2.30;1.65;;;;;;;5.41;79.42;98597.71;1666171;84;21089;-71
2021/12/20 11:12:15;;;;;;;2.47;1.80;;;;;;;5.13;80.05;98598.40;1703600;83;21050;-70
2021/12/20 11:14:48;;;;;;;7.65;1.60;;;;;;;4.88;80.16;98598.50;1688146;83;21145;-71
2021/12/20 11:17:19;;;;;;;2.67;1.57;;;;;;;4.60;80.81;98596.50;1695040;83;21061;-71
2021/12/20 11:19:56;;;;;;;5.47;3.30;;;;;;;4.36;81.32;98607.36;1695846;83;21092;-71
2021/12/20 11:22:30;;;;;;;13.78;7.20;;;;;;;4.10;83.45;98603.09;1683851;83;21149;-72
2021/12/20 11:25:03;;;;;;;5.22;2.55;;;;;;;4.01;82.86;98604.71;1695883;83;21062;-72
2021/12/20 11:27:37;;;;;;;9.53;5.83;;;;;;;4.26;83.45;98593.44;1696659;83;21094;-71
2021/12/20 11:30:11;;;;;;;4.62;3.00;;;;;;;4.58;84.10;98593.56;1691552;83;21156;-69
2021/12/20 11:32:40;;;;;;;6.47;3.00;;;;;;;4.94;81.40;98593.05;1695226;83;21085;-72
2021/12/20 11:35:07;;;;;;;47.27;22.80;;;;;;;5.15;82.20;98594.81;1704112;83;21805;-73
2021/12/20 11:37:33;;;;;;;4.67;3.02;;;;;;;5.19;80.01;98593.79;1685909;83;21517;-70
2021/12/20 11:40:03;;;;;;;38.05;20.52;;;;;;;5.04;77.17;98602.24;1678413;83;21159;-72
2021/12/20 11:42:29;;;;;;;33.58;17.00;;;;;;;4.83;83.43;98598.67;1684677;83;22309;-72
2021/12/20 11:44:59;;;;;;;5.92;3.20;;;;;;;4.63;80.19;98607.27;1697109;83;21121;-71
2021/12/20 11:47:54;;;;;;;47.62;26.50;;;;;;;4.39;80.22;98604.66;1678796;83;21128;-70
2021/12/20 11:50:23;;;;;;;9.23;4.85;;;;;;;4.12;82.82;98606.95;1703397;83;21601;-72
2021/12/20 11:52:51;;;;;;;6.53;4.00;;;;;;;3.87;82.33;98603.05;1699795;83;21116;-73